createdAt,value
2022-12-03T00:00:23.103Z,77.08
2022-12-03T00:03:06.304Z,77.19
2022-12-03T00:05:49.539Z,78.25
2022-12-03T00:08:32.667Z,78.28
2022-12-03T00:11:15.655Z,78.31
2022-12-03T00:14:00.041Z,78.77
2022-12-03T00:16:43.056Z,78.87
2022-12-03T00:19:26.392Z,78.67
2022-12-03T00:22:09.419Z,79.04
2022-12-03T00:24:53.184Z,79.08
2022-12-03T00:27:36.555Z,78.51
2022-12-03T00:30:21.125Z,78.33
2022-12-03T00:33:04.151Z,78.18
2022-12-03T00:35:47.184Z,78.30
2022-12-03T00:38:30.227Z,78.25
2022-12-03T00:41:13.290Z,77.83
2022-12-03T00:43:57.847Z,78.06
2022-12-03T00:46:42.377Z,77.98
2022-12-03T00:49:25.439Z,78.37
2022-12-03T00:52:08.564Z,78.18
2022-12-03T00:54:51.844Z,78.88
2022-12-03T00:57:35.111Z,78.11
2022-12-03T01:00:18.845Z,77.05
2022-12-03T01:03:03.712Z,77.18
2022-12-03T01:05:46.732Z,76.86
2022-12-03T01:08:29.811Z,77.04
2022-12-03T01:11:26.622Z,76.81
2022-12-03T01:14:12.086Z,76.48
2022-12-03T01:16:55.096Z,76.85
2022-12-03T01:19:46.567Z,76.88
2022-12-03T01:22:31.192Z,77.11
2022-12-03T01:25:14.287Z,77.05
2022-12-03T01:27:57.375Z,77.13
2022-12-03T01:30:54.334Z,77.85
2022-12-03T01:33:37.426Z,77.13
2022-12-03T01:36:21.834Z,77.51
2022-12-03T01:39:06.071Z,77.54
2022-12-03T01:41:50.349Z,77.25
2022-12-03T01:44:35.216Z,76.92
2022-12-03T01:47:21.236Z,76.88
2022-12-03T01:50:06.771Z,76.80
2022-12-03T01:52:51.371Z,77.00
2022-12-03T01:55:34.442Z,78.22
2022-12-03T01:58:18.059Z,77.46
2022-12-03T02:01:05.544Z,77.35
2022-12-03T02:03:48.700Z,76.75
2022-12-03T02:06:31.798Z,77.38
2022-12-03T02:09:16.224Z,77.20
2022-12-03T02:11:59.296Z,76.59
2022-12-03T02:14:42.327Z,76.95
2022-12-03T02:17:25.439Z,76.67
2022-12-03T02:20:11.331Z,77.32
2022-12-03T02:23:00.894Z,77.18
2022-12-03T02:25:45.319Z,77.67
2022-12-03T02:28:28.415Z,76.61
2022-12-03T02:31:11.809Z,76.79
2022-12-03T02:33:55.021Z,76.89
2022-12-03T02:36:39.460Z,77.23
2022-12-03T02:39:31.404Z,77.25
2022-12-03T02:42:33.285Z,77.87
2022-12-03T02:45:19.360Z,77.52
2022-12-03T02:48:07.324Z,76.97
2022-12-03T02:50:53.241Z,77.27
2022-12-03T02:53:42.312Z,77.75
2022-12-03T02:56:30.852Z,78.37
2022-12-03T02:59:15.383Z,78.01
2022-12-03T03:01:58.686Z,79.01
2022-12-03T03:04:42.396Z,79.08
2022-12-03T03:07:25.641Z,78.18
2022-12-03T03:10:12.824Z,78.29
2022-12-03T03:12:57.434Z,78.13
2022-12-03T03:15:42.787Z,77.65
2022-12-03T03:18:26.025Z,77.48
2022-12-03T03:21:09.203Z,77.90
2022-12-03T03:23:52.270Z,78.52
2022-12-03T03:26:35.331Z,77.83
2022-12-03T03:29:19.137Z,77.58
2022-12-03T03:32:04.216Z,77.43
2022-12-03T03:34:47.406Z,78.27
2022-12-03T03:37:30.729Z,78.19
2022-12-03T03:40:13.940Z,78.23
2022-12-03T03:42:57.870Z,78.21
2022-12-03T03:45:41.272Z,77.98
2022-12-03T03:48:26.009Z,77.99
2022-12-03T03:51:10.191Z,77.38
2022-12-03T03:53:54.031Z,78.43
2022-12-03T03:56:37.240Z,78.40
2022-12-03T03:59:20.387Z,78.50
2022-12-03T04:02:03.470Z,78.39
2022-12-03T04:04:48.873Z,78.12
2022-12-03T04:07:32.097Z,77.84
2022-12-03T04:10:29.874Z,78.27
2022-12-03T04:13:13.078Z,77.67
2022-12-03T04:15:56.138Z,77.20
2022-12-03T04:18:45.376Z,77.57
2022-12-03T04:21:47.072Z,78.14
2022-12-03T04:24:30.168Z,80.01
2022-12-03T04:27:30.327Z,78.87
2022-12-03T04:30:14.010Z,78.59
2022-12-03T04:33:14.670Z,78.61
2022-12-03T04:35:57.733Z,78.58
2022-12-03T04:38:42.288Z,78.58
2022-12-03T04:41:25.437Z,78.55
2022-12-03T04:44:26.340Z,78.30
2022-12-03T04:47:12.072Z,78.91
2022-12-03T04:49:55.137Z,79.50
2022-12-03T04:52:38.146Z,78.67
2022-12-03T04:55:22.566Z,79.35
2022-12-03T04:58:05.613Z,78.72
2022-12-03T05:00:48.639Z,78.65
2022-12-03T05:03:31.620Z,78.30
2022-12-03T05:06:14.659Z,77.58
2022-12-03T05:08:57.658Z,77.16
2022-12-03T05:11:42.621Z,76.86
2022-12-03T05:14:25.611Z,77.26
2022-12-03T05:17:08.722Z,77.32
2022-12-03T05:20:09.407Z,77.23
2022-12-03T05:22:52.404Z,77.24
2022-12-03T05:25:35.407Z,77.85
2022-12-03T05:28:22.259Z,78.90
2022-12-03T05:31:05.790Z,77.52
2022-12-03T05:33:48.978Z,77.18
2022-12-03T05:36:32.025Z,77.02
2022-12-03T05:39:15.211Z,77.56
2022-12-03T05:42:15.711Z,76.61
2022-12-03T05:45:00.158Z,76.45
2022-12-03T05:47:43.199Z,76.89
2022-12-03T05:50:28.598Z,76.49
2022-12-03T05:53:12.448Z,76.02
2022-12-03T05:55:55.488Z,76.65
2022-12-03T05:58:38.525Z,75.90
2022-12-03T06:01:23.022Z,76.00
2022-12-03T06:04:06.597Z,76.06
2022-12-03T06:06:49.829Z,76.21
2022-12-03T06:09:32.818Z,75.61
2022-12-03T06:12:15.887Z,75.56
2022-12-03T06:14:59.651Z,75.69
2022-12-03T06:17:44.305Z,77.15
2022-12-03T06:20:27.357Z,76.22
2022-12-03T06:23:10.402Z,75.31
2022-12-03T06:25:53.455Z,75.80
2022-12-03T06:28:36.467Z,75.33
2022-12-03T06:31:19.585Z,75.12
2022-12-03T06:34:04.109Z,75.51
2022-12-03T06:36:49.993Z,75.68
2022-12-03T06:39:33.110Z,75.75
2022-12-03T06:42:16.175Z,75.50
2022-12-03T06:44:59.145Z,75.92
2022-12-03T06:47:42.153Z,75.64
2022-12-03T06:50:26.627Z,75.60
2022-12-03T06:53:09.607Z,75.50
2022-12-03T06:55:52.643Z,74.97
2022-12-03T06:58:35.701Z,75.13
2022-12-03T07:01:18.749Z,74.18
2022-12-03T07:04:01.875Z,73.62
2022-12-03T07:06:46.288Z,73.76
2022-12-03T07:09:29.288Z,73.72
2022-12-03T07:12:12.382Z,74.08
2022-12-03T07:14:55.867Z,73.92
2022-12-03T07:17:39.270Z,74.13
2022-12-03T07:20:22.615Z,73.70
2022-12-03T07:23:07.106Z,74.72
2022-12-03T07:25:50.097Z,73.44
2022-12-03T07:28:33.128Z,72.84
2022-12-03T07:31:16.317Z,73.16
2022-12-03T07:33:59.445Z,72.30
2022-12-03T07:36:42.544Z,71.81
2022-12-03T07:39:27.012Z,71.86
2022-12-03T07:42:10.480Z,71.15
2022-12-03T07:44:53.846Z,70.57
2022-12-03T07:47:37.090Z,69.64
2022-12-03T07:50:20.121Z,69.37
2022-12-03T07:53:03.163Z,69.67
2022-12-03T07:55:47.646Z,68.92
2022-12-03T07:58:30.941Z,68.82
2022-12-03T08:01:14.033Z,68.92
2022-12-03T08:03:57.157Z,69.70
2022-12-03T08:06:40.257Z,68.83
2022-12-03T09:19:57.659Z,65.66
2022-12-03T09:22:43.598Z,64.52
2022-12-03T09:25:29.861Z,64.55
2022-12-03T09:28:28.155Z,64.42
2022-12-03T09:31:14.206Z,63.95
2022-12-03T09:33:57.457Z,64.96
2022-12-03T09:36:50.403Z,65.93
2022-12-03T09:39:33.682Z,66.06
2022-12-03T09:42:19.702Z,64.40
2022-12-03T09:45:04.268Z,63.96
2022-12-03T09:47:54.748Z,64.88
2022-12-03T09:50:42.536Z,65.23
2022-12-03T09:53:29.074Z,65.28
2022-12-03T09:56:19.463Z,64.52
2022-12-03T09:59:05.821Z,64.35
2022-12-03T10:01:58.391Z,64.72
2022-12-03T10:04:41.776Z,65.33
2022-12-03T10:07:29.016Z,64.43
2022-12-03T10:10:19.553Z,64.33
2022-12-03T10:13:03.274Z,65.11
2022-12-03T10:15:46.657Z,65.17
2022-12-03T10:43:22.980Z,65.09
2022-12-03T10:46:13.570Z,65.17
2022-12-03T10:49:11.352Z,65.19
2022-12-03T10:51:54.436Z,65.63
2022-12-03T10:54:37.559Z,67.17
2022-12-03T10:57:20.787Z,67.76
2022-12-03T11:00:06.274Z,66.89
2022-12-03T11:02:54.944Z,66.53
2022-12-03T11:05:39.638Z,66.20
2022-12-03T11:08:24.492Z,66.35
2022-12-03T11:11:09.817Z,66.38
2022-12-03T11:13:54.808Z,66.40
2022-12-03T11:17:09.981Z,66.59
2022-12-03T11:19:53.555Z,67.18
2022-12-03T11:22:47.365Z,67.85
2022-12-03T11:25:57.544Z,67.76
2022-12-03T11:28:54.428Z,68.40
2022-12-03T11:31:43.090Z,67.45
2022-12-03T11:34:52.353Z,68.17
2022-12-03T11:37:35.862Z,69.83
2022-12-03T11:40:29.004Z,71.38
2022-12-03T11:43:12.330Z,70.47
2022-12-03T11:45:59.680Z,69.22
2022-12-03T11:48:48.608Z,69.38
2022-12-03T11:51:33.287Z,70.41
2022-12-03T11:54:18.065Z,69.98
2022-12-03T11:57:01.457Z,70.43
2022-12-03T11:59:59.322Z,69.40
2022-12-03T12:02:42.721Z,70.50
2022-12-03T12:05:29.444Z,70.84
2022-12-03T12:08:20.171Z,70.53
2022-12-03T12:11:04.116Z,70.38
2022-12-03T12:13:52.789Z,71.08
2022-12-03T12:16:42.822Z,71.65
2022-12-03T12:19:31.161Z,72.31
2022-12-03T12:22:21.247Z,72.89
2022-12-03T12:25:07.029Z,73.55
2022-12-03T12:27:51.112Z,74.14
2022-12-03T12:30:34.755Z,74.31
2022-12-03T12:33:23.378Z,73.74
2022-12-03T12:36:09.386Z,74.99
2022-12-03T12:38:52.508Z,74.75
2022-12-03T12:41:36.985Z,74.78
2022-12-03T12:44:23.340Z,75.16
2022-12-03T12:47:13.788Z,75.27
2022-12-03T12:49:57.490Z,75.54
2022-12-03T12:52:49.294Z,76.48
2022-12-03T12:55:32.380Z,75.59
2022-12-03T12:58:19.857Z,75.47
2022-12-03T13:01:09.203Z,76.04
2022-12-03T13:03:54.013Z,75.85
2022-12-03T13:06:37.104Z,76.04
2022-12-03T13:09:22.128Z,75.25
2022-12-03T13:12:07.462Z,75.86
2022-12-03T13:14:52.771Z,75.87
2022-12-03T13:17:35.773Z,76.17
2022-12-03T13:20:21.949Z,76.12
2022-12-03T13:23:16.024Z,76.33
2022-12-03T13:26:12.912Z,76.00
2022-12-03T13:29:12.886Z,76.02
2022-12-03T13:31:59.065Z,76.91
2022-12-03T13:34:42.611Z,76.35
2022-12-03T13:37:29.054Z,77.06
2022-12-03T13:40:24.671Z,76.27
2022-12-03T13:43:13.712Z,75.99
2022-12-03T13:45:56.846Z,76.06
2022-12-03T13:48:43.248Z,77.15
2022-12-03T13:51:30.945Z,77.40
2022-12-03T13:54:19.806Z,76.94
2022-12-03T13:57:05.762Z,77.43
2022-12-03T13:59:48.890Z,77.50
2022-12-03T14:02:31.973Z,77.82
2022-12-03T14:05:16.854Z,77.89
2022-12-03T14:08:02.286Z,77.89
2022-12-03T14:10:45.491Z,79.46
2022-12-03T14:13:28.552Z,78.57
2022-12-03T14:16:11.646Z,78.49
2022-12-03T14:18:54.688Z,78.86
2022-12-03T14:21:39.063Z,78.42
2022-12-03T14:24:22.108Z,78.01
2022-12-03T14:27:05.485Z,77.88
2022-12-03T14:29:48.807Z,78.05
2022-12-03T14:32:32.040Z,77.82
2022-12-03T14:35:15.430Z,77.82
2022-12-03T14:38:00.383Z,78.16
2022-12-03T14:40:43.811Z,78.38
2022-12-03T14:43:27.293Z,78.90
2022-12-03T14:46:10.653Z,79.02
2022-12-03T14:48:53.991Z,78.97
2022-12-03T14:51:37.322Z,78.80
2022-12-03T14:54:22.073Z,78.17
2022-12-03T14:57:05.566Z,78.56
2022-12-03T14:59:48.798Z,77.92
2022-12-03T15:02:32.102Z,78.66
2022-12-03T15:05:15.481Z,78.51
2022-12-03T15:07:58.803Z,78.00
2022-12-03T15:10:44.228Z,77.96
2022-12-03T15:13:27.633Z,77.94
2022-12-03T15:16:10.856Z,78.04
2022-12-03T15:18:54.178Z,78.18
2022-12-03T15:21:37.427Z,78.12
2022-12-03T15:24:20.761Z,78.20
2022-12-03T15:27:05.646Z,78.82
2022-12-03T15:29:49.010Z,78.64
2022-12-03T15:32:32.293Z,78.43
2022-12-03T15:35:18.600Z,78.46
2022-12-03T15:38:02.273Z,78.38
2022-12-03T15:40:45.448Z,78.08
2022-12-03T15:43:30.217Z,77.89
2022-12-03T15:46:13.716Z,77.98
2022-12-03T15:48:57.169Z,78.19
2022-12-03T15:51:40.731Z,78.99
2022-12-03T15:54:24.000Z,78.81
2022-12-03T15:57:07.274Z,79.18
2022-12-03T15:59:52.522Z,79.53
2022-12-03T16:02:36.024Z,80.03
2022-12-03T16:05:19.486Z,79.97
2022-12-03T16:08:02.984Z,79.37
2022-12-03T16:10:46.298Z,79.55
2022-12-03T16:13:29.578Z,79.38
2022-12-03T16:16:14.832Z,79.64
2022-12-03T16:18:58.386Z,79.39
2022-12-03T16:21:41.771Z,79.44
2022-12-03T16:24:25.099Z,79.42
2022-12-03T16:27:08.567Z,79.82
2022-12-03T16:29:52.089Z,79.07
2022-12-03T16:32:37.522Z,79.11
2022-12-03T16:35:48.659Z,78.88
2022-12-03T16:38:35.143Z,78.35
2022-12-03T16:44:55.323Z,78.27
2022-12-03T16:48:10.412Z,78.35
2022-12-03T16:50:54.812Z,78.05
2022-12-03T16:53:43.694Z,77.95
2022-12-03T16:56:42.064Z,78.10
2022-12-03T16:59:29.312Z,78.11
2022-12-03T17:02:15.837Z,78.64
2022-12-03T17:05:10.219Z,78.36
2022-12-03T17:07:54.132Z,78.73
2022-12-03T17:10:38.192Z,78.00
2022-12-03T17:13:24.048Z,78.33
2022-12-03T17:16:08.576Z,78.01
2022-12-03T17:18:51.690Z,77.64
2022-12-03T17:21:36.112Z,77.59
2022-12-03T17:24:19.152Z,77.48
2022-12-03T17:27:02.274Z,77.23
2022-12-03T17:29:45.406Z,76.87
2022-12-03T17:32:28.622Z,76.38
2022-12-03T17:35:13.036Z,76.74
2022-12-03T17:37:57.476Z,76.10
2022-12-03T17:40:40.531Z,75.60
2022-12-03T17:43:23.623Z,74.92
2022-12-03T17:46:07.432Z,75.66
2022-12-03T17:48:50.500Z,75.65
2022-12-03T17:51:33.622Z,75.86
2022-12-03T17:54:18.027Z,76.29
2022-12-03T17:57:01.130Z,77.00
2022-12-03T17:59:44.212Z,76.88
2022-12-03T18:02:27.331Z,77.67
2022-12-03T18:05:11.249Z,77.49
2022-12-03T18:07:54.336Z,77.37
2022-12-03T18:10:41.263Z,77.33
2022-12-03T18:13:24.980Z,77.08
2022-12-03T18:16:10.454Z,76.76
2022-12-03T18:18:57.568Z,76.11
2022-12-03T18:21:42.653Z,76.32
2022-12-03T18:24:26.425Z,77.17
2022-12-03T18:27:11.016Z,77.26
2022-12-03T18:29:54.318Z,76.92
2022-12-03T18:32:37.671Z,77.10
2022-12-03T18:35:20.879Z,76.50
2022-12-03T18:38:04.074Z,77.33
2022-12-03T18:40:49.739Z,77.44
2022-12-03T18:43:36.399Z,77.78
2022-12-03T18:46:51.776Z,77.16
2022-12-03T18:49:27.537Z,77.06
2022-12-03T18:52:14.929Z,77.04
2022-12-03T18:54:59.869Z,76.68
2022-12-03T18:57:45.000Z,76.66
2022-12-03T19:00:35.856Z,77.80
2022-12-03T19:03:20.319Z,77.30
2022-12-03T19:06:04.792Z,77.94
2022-12-03T19:08:54.792Z,78.14
2022-12-03T19:11:41.682Z,78.29
2022-12-03T19:14:26.270Z,77.81
2022-12-03T19:17:13.028Z,77.94
2022-12-03T19:19:57.003Z,77.45
2022-12-03T19:22:40.515Z,77.36
2022-12-03T19:25:23.879Z,78.39
2022-12-03T19:28:07.576Z,74.96
2022-12-03T19:30:58.148Z,74.37
2022-12-03T19:33:44.109Z,74.96
2022-12-03T19:36:29.446Z,75.76
2022-12-03T19:39:12.774Z,75.97
2022-12-03T19:41:55.967Z,76.76
2022-12-03T19:44:39.472Z,77.74
2022-12-03T19:47:24.807Z,77.84
2022-12-03T19:50:11.381Z,78.74
2022-12-03T19:52:54.712Z,77.78
2022-12-03T19:55:37.975Z,79.09
2022-12-03T19:58:21.194Z,79.18
2022-12-03T20:01:08.854Z,80.20
2022-12-03T20:03:53.886Z,79.87
2022-12-03T20:06:39.199Z,78.30
2022-12-03T20:09:22.751Z,77.19
2022-12-03T20:12:06.379Z,77.52
2022-12-03T20:14:50.284Z,77.08
2022-12-03T20:17:33.615Z,76.91
2022-12-03T20:20:16.945Z,76.18
2022-12-03T20:23:01.604Z,75.63
2022-12-03T20:25:44.823Z,75.70
2022-12-03T20:28:29.800Z,75.34
2022-12-03T20:31:14.917Z,76.25
2022-12-03T20:34:00.845Z,76.22
2022-12-03T20:36:44.426Z,75.16
2022-12-03T20:39:29.176Z,75.18
2022-12-03T20:42:12.827Z,75.53
2022-12-03T20:44:56.082Z,77.57
2022-12-03T20:47:39.415Z,77.76
2022-12-03T20:50:22.687Z,77.73
2022-12-03T20:53:23.624Z,78.48
2022-12-03T20:56:10.483Z,78.69
2022-12-03T20:58:53.880Z,78.62
2022-12-03T21:01:38.556Z,79.39
2022-12-03T21:04:21.918Z,79.46
2022-12-03T21:07:05.299Z,80.24
2022-12-03T21:09:48.803Z,80.49
2022-12-03T21:12:33.758Z,80.55
2022-12-03T21:15:17.790Z,81.95
2022-12-03T21:18:01.512Z,82.55
2022-12-03T21:20:46.708Z,83.07
2022-12-03T21:23:30.602Z,83.18
2022-12-03T21:26:16.583Z,83.53
2022-12-03T21:29:01.323Z,84.31
2022-12-03T21:31:44.612Z,84.51
2022-12-03T21:34:34.191Z,84.03
2022-12-03T21:37:19.187Z,84.33
2022-12-03T21:40:02.420Z,84.67
2022-12-03T21:42:45.597Z,84.55
2022-12-03T21:45:30.413Z,83.79
2022-12-03T21:48:15.335Z,83.18
2022-12-03T21:51:03.666Z,83.95
2022-12-03T21:53:47.803Z,84.14
2022-12-03T21:56:32.059Z,84.31
2022-12-03T21:59:15.541Z,84.21
2022-12-03T22:02:00.320Z,84.92
2022-12-03T22:04:43.590Z,84.51
2022-12-03T22:07:27.014Z,83.90
2022-12-03T22:10:12.129Z,84.28
2022-12-03T22:12:55.339Z,84.24
2022-12-03T22:15:40.325Z,84.41
2022-12-03T22:18:25.089Z,83.67
2022-12-03T22:21:10.088Z,83.29
2022-12-03T22:23:53.495Z,83.08
2022-12-03T22:26:37.044Z,83.52
2022-12-03T22:29:20.463Z,82.69
2022-12-03T22:32:03.813Z,82.70
2022-12-03T22:34:48.594Z,83.32
2022-12-03T22:37:32.832Z,82.71
2022-12-03T22:40:16.532Z,83.11
2022-12-03T22:42:59.806Z,83.44
2022-12-03T22:45:43.231Z,83.01
2022-12-03T22:48:26.761Z,82.91
2022-12-03T22:51:14.382Z,82.72
2022-12-03T22:53:59.803Z,83.19
2022-12-03T22:56:43.145Z,83.64
2022-12-03T22:59:26.477Z,83.63
2022-12-03T23:02:09.674Z,83.79
2022-12-03T23:04:55.962Z,82.93
2022-12-03T23:07:40.674Z,82.70
2022-12-03T23:10:23.953Z,83.48
2022-12-03T23:13:07.520Z,82.79
2022-12-03T23:15:52.999Z,82.80
2022-12-03T23:18:36.352Z,83.42
2022-12-03T23:21:28.530Z,82.81
2022-12-03T23:24:14.306Z,83.12
2022-12-03T23:26:58.272Z,82.89
2022-12-03T23:29:41.620Z,82.35
2022-12-03T23:32:25.052Z,82.42
2022-12-03T23:35:09.591Z,82.67
2022-12-03T23:37:52.881Z,82.69
2022-12-03T23:40:37.712Z,83.17
2022-12-03T23:43:21.440Z,82.88
2022-12-03T23:46:05.995Z,83.12
2022-12-03T23:48:49.280Z,83.27
2022-12-03T23:51:32.537Z,83.09
2022-12-03T23:54:15.749Z,82.88
2022-12-03T23:57:00.565Z,82.04
2022-12-03T23:59:43.883Z,81.69
